Time;durP1;ratioP1;P1;durP2;ratioP2;P2;SDS_P1;SDS_P2;PMS_P1;PMS_P2;Temp;Humidity;BMP_temperature;BMP_pressure;BME280_temperature;BME280_humidity;BME280_pressure;Samples;Min_cycle;Max_cycle;Signal;HPM_P1;HPM_P2
2021/10/29 00:00:25;;;;;;;11.65;8.55;;;8.40;83.80;;;;;;5055390;28;20139;-66
2021/10/29 00:02:52;;;;;;;40.22;8.70;;;8.40;82.90;;;;;;5055329;28;20116;-66
2021/10/29 00:05:18;;;;;;;25.25;8.23;;;8.40;83.00;;;;;;5052060;28;20033;-66
2021/10/29 00:07:44;;;;;;;62.35;9.00;;;8.40;83.10;;;;;;5053293;28;20086;-65
2021/10/29 00:10:10;;;;;;;82.10;9.52;;;8.40;83.10;;;;;;5054158;28;20101;-65
2021/10/29 00:12:36;;;;;;;47.78;9.25;;;8.40;82.90;;;;;;5050881;28;20060;-66
2021/10/29 00:15:02;;;;;;;27.50;7.88;;;8.40;82.70;;;;;;5052724;28;20273;-66
2021/10/29 00:17:27;;;;;;;37.05;9.15;;;8.40;82.90;;;;;;5051071;28;20084;-66
2021/10/29 00:19:53;;;;;;;89.60;9.95;;;8.40;82.90;;;;;;5052838;28;20832;-66
2021/10/29 00:22:18;;;;;;;46.40;9.45;;;8.40;82.90;;;;;;5049950;28;20472;-65
2021/10/29 00:24:44;;;;;;;22.80;8.85;;;8.40;82.90;;;;;;5053940;28;20040;-66
2021/10/29 00:27:10;;;;;;;63.92;9.65;;;8.40;82.80;;;;;;5053839;28;20531;-65
2021/10/29 00:29:36;;;;;;;24.80;8.93;;;8.40;82.90;;;;;;5051609;28;20582;-66
2021/10/29 00:32:01;;;;;;;13.27;8.73;;;8.40;83.00;;;;;;5051586;28;20103;-66
2021/10/29 00:34:27;;;;;;;157.70;11.55;;;8.40;83.10;;;;;;5052702;28;20041;-66
2021/10/29 00:36:53;;;;;;;24.08;8.95;;;8.40;83.30;;;;;;5054722;28;20756;-66
2021/10/29 00:39:19;;;;;;;53.60;9.25;;;8.50;83.20;;;;;;5053511;28;20052;-66
2021/10/29 00:41:45;;;;;;;41.03;9.55;;;8.40;83.30;;;;;;5053442;28;20088;-66
2021/10/29 00:44:11;;;;;;;23.55;8.90;;;8.50;83.30;;;;;;5053662;28;20538;-66
2021/10/29 00:46:37;;;;;;;53.38;10.10;;;8.40;83.10;;;;;;5051119;28;20111;-65
2021/10/29 00:49:03;;;;;;;29.13;8.90;;;8.50;83.20;;;;;;5052279;28;20074;-66
2021/10/29 00:51:28;;;;;;;35.95;9.25;;;8.50;83.30;;;;;;5052780;28;20040;-66
2021/10/29 00:53:54;;;;;;;63.72;9.40;;;8.50;83.10;;;;;;5057408;28;20028;-66
2021/10/29 00:56:20;;;;;;;233.02;12.02;;;8.50;83.20;;;;;;5055127;28;20560;-66
2021/10/29 00:58:46;;;;;;;196.88;10.18;;;8.50;83.80;;;;;;5051953;28;20033;-65
2021/10/29 01:01:12;;;;;;;179.15;10.55;;;8.40;82.60;;;;;;5050355;28;20682;-66
2021/10/29 01:03:42;;;;;;;42.90;8.10;;;8.50;82.50;;;;;;5049893;28;20615;-66
2021/10/29 01:06:08;;;;;;;58.47;8.68;;;8.40;82.50;;;;;;5054122;28;20031;-65
2021/10/29 01:08:35;;;;;;;338.60;14.27;;;8.30;82.60;;;;;;5053985;28;20067;-66
2021/10/29 01:11:02;;;;;;;20.08;7.47;;;8.30;82.70;;;;;;5054215;28;20048;-64
2021/10/29 01:13:28;;;;;;;22.58;8.20;;;8.30;82.60;;;;;;5053255;28;20555;-63
2021/10/29 01:15:55;;;;;;;17.50;8.32;;;8.20;82.70;;;;;;5051915;28;20579;-66
2021/10/29 01:18:21;;;;;;;44.92;8.23;;;8.20;82.90;;;;;;5054864;28;20102;-65
2021/10/29 01:20:47;;;;;;;42.00;8.57;;;8.20;83.10;;;;;;5056589;28;20705;-66
2021/10/29 01:23:12;;;;;;;33.10;8.27;;;8.20;83.20;;;;;;5058072;28;20040;-66
2021/10/29 01:25:38;;;;;;;15.52;7.80;;;8.20;83.30;;;;;;5057985;28;20074;-66
2021/10/29 01:28:09;;;;;;;144.57;9.90;;;8.30;83.20;;;;;;5056643;28;20495;-65
2021/10/29 01:30:36;;;;;;;51.40;7.57;;;8.30;83.20;;;;;;5057439;28;20687;-66
2021/10/29 01:33:01;;;;;;;22.25;7.97;;;8.20;82.90;;;;;;5056905;28;20032;-66
2021/10/29 01:35:28;;;;;;;19.45;7.30;;;8.20;82.90;;;;;;5057853;28;22061;-66
2021/10/29 01:37:54;;;;;;;32.30;7.70;;;8.20;83.10;;;;;;5054263;28;20040;-66
2021/10/29 01:40:20;;;;;;;56.17;7.00;;;8.20;83.00;;;;;;5055986;28;20036;-66
2021/10/29 01:42:47;;;;;;;68.88;7.30;;;8.20;82.90;;;;;;5058353;28;20050;-66
2021/10/29 01:45:13;;;;;;;47.65;7.70;;;8.20;82.70;;;;;;5056344;28;20133;-66
2021/10/29 01:47:39;;;;;;;58.80;7.63;;;8.20;82.40;;;;;;5057141;28;20132;-66
2021/10/29 01:50:07;;;;;;;11.18;6.43;;;8.30;82.30;;;;;;5058345;28;20045;-65
2021/10/29 01:52:33;;;;;;;22.08;6.97;;;8.20;82.20;;;;;;5054735;28;20037;-65
2021/10/29 01:54:59;;;;;;;159.38;8.90;;;8.20;82.30;;;;;;5053478;28;20082;-66
2021/10/29 01:57:25;;;;;;;38.67;7.20;;;8.20;82.20;;;;;;5056661;28;20044;-66
2021/10/29 01:59:50;;;;;;;102.60;7.35;;;8.10;82.00;;;;;;5055854;28;20136;-65
2021/10/29 02:02:16;;;;;;;18.38;6.43;;;8.10;82.00;;;;;;5054554;28;20132;-66
2021/10/29 02:04:42;;;;;;;11.50;6.78;;;8.00;81.90;;;;;;5056762;28;20047;-66
2021/10/29 02:07:08;;;;;;;56.47;7.55;;;8.00;82.20;;;;;;5057184;28;20063;-65
2021/10/29 02:09:33;;;;;;;11.00;6.55;;;8.00;82.40;;;;;;5054561;28;20068;-66
2021/10/29 02:11:59;;;;;;;88.85;8.07;;;8.00;82.40;;;;;;5054669;28;20084;-64
2021/10/29 02:14:24;;;;;;;23.40;6.65;;;8.00;82.60;;;;;;5055630;28;20060;-66
2021/10/29 02:16:50;;;;;;;192.15;10.48;;;8.00;82.40;;;;;;5054052;28;20042;-68
2021/10/29 02:19:16;;;;;;;21.00;7.15;;;7.90;82.20;;;;;;5053673;28;20029;-67
2021/10/29 02:21:42;;;;;;;107.47;7.55;;;7.90;82.20;;;;;;5054572;28;20036;-67
2021/10/29 02:24:08;;;;;;;7.10;6.03;;;7.90;82.40;;;;;;5053046;28;20029;-66
2021/10/29 02:26:34;;;;;;;15.13;6.70;;;7.90;82.50;;;;;;5051951;28;20029;-65
2021/10/29 02:29:01;;;;;;;135.35;8.63;;;7.90;82.60;;;;;;5053430;28;20037;-66
2021/10/29 02:31:26;;;;;;;18.60;6.82;;;7.80;82.80;;;;;;5055991;28;20032;-66
2021/10/29 02:33:53;;;;;;;35.50;6.57;;;7.80;82.60;;;;;;5053896;28;20589;-66
2021/10/29 02:36:19;;;;;;;18.75;6.50;;;7.80;82.70;;;;;;5052700;28;20032;-67
2021/10/29 02:38:45;;;;;;;83.10;7.32;;;7.80;82.80;;;;;;5053277;28;20032;-66
2021/10/29 02:41:11;;;;;;;160.15;8.93;;;7.80;82.80;;;;;;5052510;28;22676;-66
2021/10/29 02:43:36;;;;;;;189.48;9.85;;;7.90;82.70;;;;;;5053647;28;20031;-66
2021/10/29 02:46:02;;;;;;;174.77;9.80;;;7.90;82.50;;;;;;5055694;28;20424;-67
2021/10/29 02:48:28;;;;;;;34.40;6.53;;;7.90;82.40;;;;;;5055527;28;20048;-67
2021/10/29 02:50:54;;;;;;;26.95;6.68;;;7.90;82.40;;;;;;5057254;28;20045;-66
2021/10/29 02:53:19;;;;;;;6.75;6.00;;;7.80;82.60;;;;;;5053144;28;20109;-66
2021/10/29 02:55:45;;;;;;;50.67;7.32;;;7.80;82.70;;;;;;5056393;28;21820;-66
2021/10/29 02:58:11;;;;;;;19.60;6.68;;;7.80;82.80;;;;;;5057035;28;20040;-66
2021/10/29 03:00:36;;;;;;;37.38;7.10;;;7.80;82.90;;;;;;5055504;28;20487;-66
2021/10/29 03:03:02;;;;;;;14.65;6.47;;;7.80;82.80;;;;;;5055166;28;20056;-66
2021/10/29 03:05:28;;;;;;;15.80;6.78;;;7.80;82.90;;;;;;5053492;28;20151;-66
2021/10/29 03:07:53;;;;;;;11.05;6.93;;;7.80;83.00;;;;;;5052936;28;20059;-66
2021/10/29 03:10:19;;;;;;;88.63;8.27;;;7.90;83.00;;;;;;5055337;28;20492;-66
2021/10/29 03:12:45;;;;;;;23.90;6.82;;;7.90;82.90;;;;;;5056159;28;20507;-66
2021/10/29 03:15:12;;;;;;;39.17;6.63;;;7.90;82.70;;;;;;5056726;28;20029;-66
2021/10/29 03:17:38;;;;;;;8.80;5.85;;;7.90;82.60;;;;;;5058492;28;20123;-66
2021/10/29 03:20:07;;;;;;;6.93;6.07;;;7.90;82.60;;;;;;5056384;28;21762;-66
2021/10/29 03:22:32;;;;;;;158.48;9.77;;;7.90;82.60;;;;;;5056554;28;20530;-66
2021/10/29 03:24:58;;;;;;;112.60;7.95;;;7.90;82.60;;;;;;5056637;28;20032;-67
2021/10/29 03:27:23;;;;;;;53.25;7.13;;;7.90;82.40;;;;;;5053752;28;20527;-66
2021/10/29 03:29:49;;;;;;;79.28;7.10;;;7.80;82.30;;;;;;5054203;28;20037;-65
2021/10/29 03:32:17;;;;;;;35.28;6.50;;;7.80;82.40;;;;;;5056269;28;20033;-66
2021/10/29 03:34:43;;;;;;;77.13;7.38;;;7.80;82.40;;;;;;5054370;28;20044;-65
2021/10/29 03:37:29;;;;;;;50.38;6.78;;;7.80;82.40;;;;;;5051052;28;20121;-67
2021/10/29 03:42:33;;;;;;;16.58;6.20;;;7.70;82.40;;;;;;5054297;28;20045;-66
2021/10/29 03:47:28;;;;;;;103.68;8.05;;;7.70;82.80;;;;;;5051549;28;20120;-66
2021/10/29 03:50:01;;;;;;;61.10;7.28;;;7.70;82.90;;;;;;5051898;28;20040;-64
2021/10/29 03:52:32;;;;;;;69.82;6.53;;;7.70;82.70;;;;;;5056259;28;20182;-65
2021/10/29 03:55:05;;;;;;;97.60;7.15;;;7.70;82.70;;;;;;5052559;28;20032;-64
2021/10/29 03:57:30;;;;;;;15.27;6.55;;;7.70;82.70;;;;;;5054613;28;20040;-66
2021/10/29 03:59:56;;;;;;;58.10;7.20;;;7.80;82.80;;;;;;5052853;28;20036;-66
2021/10/29 04:02:23;;;;;;;10.35;6.32;;;7.70;82.80;;;;;;5053395;28;20542;-66
2021/10/29 04:04:49;;;;;;;44.95;6.63;;;7.70;82.70;;;;;;5054724;28;20040;-66
2021/10/29 04:07:16;;;;;;;20.52;9.80;;;7.70;82.90;;;;;;5054146;28;20032;-66
2021/10/29 04:09:44;;;;;;;22.88;8.63;;;7.70;82.90;;;;;;5053443;28;20040;-65
2021/10/29 04:12:12;;;;;;;38.92;7.35;;;7.60;82.90;;;;;;5054281;28;20412;-66
2021/10/29 04:14:38;;;;;;;29.67;6.95;;;7.70;83.00;;;;;;5048544;28;20435;-66
2021/10/29 04:17:04;;;;;;;27.80;6.60;;;7.70;82.90;;;;;;5054074;28;20036;-66
2021/10/29 04:19:30;;;;;;;40.53;6.72;;;7.70;82.90;;;;;;5055136;28;20037;-66
2021/10/29 04:21:59;;;;;;;20.52;6.50;;;7.70;82.90;;;;;;5053398;28;20086;-66
2021/10/29 04:24:25;;;;;;;12.73;6.13;;;7.70;82.80;;;;;;5052856;28;20036;-67
2021/10/29 04:26:51;;;;;;;19.52;6.57;;;7.70;83.30;;;;;;5053381;28;20088;-66
2021/10/29 04:29:18;;;;;;;10.95;6.50;;;7.70;82.90;;;;;;5051535;28;20075;-66
2021/10/29 04:31:49;;;;;;;19.98;6.55;;;7.70;83.00;;;;;;5054232;28;20033;-67
2021/10/29 04:34:17;;;;;;;54.90;7.80;;;7.60;83.10;;;;;;5050264;28;20051;-64
2021/10/29 04:36:43;;;;;;;48.40;7.28;;;7.70;83.10;;;;;;5050413;28;20106;-66
2021/10/29 04:39:11;;;;;;;42.70;7.22;;;7.60;82.90;;;;;;5054782;28;20562;-65
2021/10/29 04:41:38;;;;;;;21.45;6.30;;;7.60;83.10;;;;;;5053704;28;20041;-65
2021/10/29 04:44:04;;;;;;;25.38;6.70;;;7.60;83.10;;;;;;5049494;28;20494;-66
2021/10/29 04:46:31;;;;;;;20.45;6.57;;;7.60;83.30;;;;;;5055971;28;20583;-66
2021/10/29 04:48:57;;;;;;;20.08;6.90;;;7.60;83.30;;;;;;5054715;28;20112;-66
2021/10/29 04:51:22;;;;;;;17.52;6.38;;;7.60;83.40;;;;;;5054009;28;20123;-66
2021/10/29 04:53:48;;;;;;;40.72;6.82;;;7.50;83.30;;;;;;5055093;28;20411;-67
2021/10/29 04:56:14;;;;;;;55.28;7.03;;;7.50;83.10;;;;;;5054984;28;20036;-66
2021/10/29 04:58:39;;;;;;;61.55;7.35;;;7.50;83.00;;;;;;5054806;28;20086;-66
2021/10/29 05:01:05;;;;;;;26.10;6.22;;;7.50;82.80;;;;;;5054913;28;20028;-66
2021/10/29 05:03:32;;;;;;;37.65;6.63;;;7.50;83.00;;;;;;5055775;28;20037;-66
2021/10/29 05:05:58;;;;;;;53.90;7.43;;;7.50;83.20;;;;;;5056221;28;20025;-66
2021/10/29 05:08:23;;;;;;;33.78;6.35;;;7.40;83.10;;;;;;5054989;28;20500;-66
2021/10/29 05:10:49;;;;;;;35.53;6.65;;;7.40;83.30;;;;;;5055128;28;20056;-67
2021/10/29 05:13:15;;;;;;;53.20;7.00;;;7.40;83.30;;;;;;5055880;28;20078;-66
2021/10/29 05:15:41;;;;;;;46.75;7.07;;;7.40;83.40;;;;;;5053250;28;20020;-66
2021/10/29 05:18:12;;;;;;;36.53;6.18;;;7.40;83.40;;;;;;5053604;28;20546;-66
2021/10/29 05:20:38;;;;;;;79.93;6.97;;;7.30;83.20;;;;;;5054405;28;20040;-66
2021/10/29 05:23:04;;;;;;;61.67;6.10;;;7.40;83.20;;;;;;5054543;28;20380;-66
2021/10/29 05:25:29;;;;;;;42.20;6.28;;;7.30;83.00;;;;;;5054051;28;20045;-66
2021/10/29 05:27:55;;;;;;;20.90;5.65;;;7.20;83.00;;;;;;5054164;28;20055;-67
2021/10/29 05:30:21;;;;;;;13.88;5.43;;;7.20;83.00;;;;;;5054809;28;20047;-66
2021/10/29 05:32:46;;;;;;;25.70;5.93;;;7.10;83.30;;;;;;5054252;28;20044;-64
2021/10/29 05:35:12;;;;;;;28.35;6.10;;;7.10;83.40;;;;;;5053594;28;20427;-66
2021/10/29 05:37:38;;;;;;;27.85;5.50;;;7.10;83.50;;;;;;5051722;28;20051;-66
2021/10/29 05:40:06;;;;;;;19.83;5.45;;;7.10;83.60;;;;;;5055376;28;20106;-66
2021/10/29 05:42:33;;;;;;;40.65;6.10;;;7.10;83.60;;;;;;5052551;28;20424;-66
2021/10/29 05:45:00;;;;;;;55.20;6.63;;;7.10;83.60;;;;;;5054120;28;20092;-67
2021/10/29 05:47:26;;;;;;;34.88;6.57;;;7.10;83.60;;;;;;5055263;28;20360;-67
2021/10/29 05:49:52;;;;;;;18.98;5.70;;;7.10;83.50;;;;;;5054609;28;20037;-67
2021/10/29 05:52:20;;;;;;;74.43;7.30;;;7.10;83.50;;;;;;5054249;28;20041;-67
2021/10/29 05:57:23;;;;;;;119.38;8.65;;;7.10;83.50;;;;;;5053207;28;20045;-66
2021/10/29 05:59:49;;;;;;;77.63;6.97;;;7.10;83.60;;;;;;5054190;28;20033;-67
2021/10/29 06:02:14;;;;;;;25.00;6.15;;;7.00;83.40;;;;;;5054828;28;20037;-67
2021/10/29 06:04:40;;;;;;;69.03;7.35;;;7.10;83.40;;;;;;5052667;28;20090;-66
2021/10/29 06:07:06;;;;;;;60.78;6.82;;;7.00;83.50;;;;;;5057547;28;20032;-66
2021/10/29 06:09:31;;;;;;;34.45;6.63;;;7.00;83.50;;;;;;5059064;28;20478;-66
2021/10/29 06:11:57;;;;;;;15.13;6.30;;;7.00;83.50;;;;;;5053414;28;20336;-66
2021/10/29 06:14:24;;;;;;;11.63;6.50;;;7.10;83.70;;;;;;5057182;28;20446;-67
2021/10/29 06:16:50;;;;;;;23.05;6.57;;;7.10;83.80;;;;;;5058302;28;20209;-67
2021/10/29 06:19:16;;;;;;;22.83;6.10;;;7.10;83.80;;;;;;5058955;28;20035;-67
2021/10/29 06:24:20;;;;;;;22.05;6.97;;;7.10;83.70;;;;;;5058849;28;20040;-66
2021/10/29 06:29:34;;;;;;;33.45;6.22;;;7.10;83.40;;;;;;5057114;28;20112;-66
2021/10/29 06:32:02;;;;;;;33.08;6.20;;;7.10;83.20;;;;;;5060213;28;20129;-66
2021/10/29 06:34:28;;;;;;;19.88;6.57;;;7.10;83.10;;;;;;5060352;28;20040;-66
2021/10/29 06:36:54;;;;;;;23.13;6.53;;;7.10;83.10;;;;;;5056352;28;20530;-66
2021/10/29 06:39:20;;;;;;;34.38;7.30;;;7.10;83.30;;;;;;5062872;28;20040;-67
2021/10/29 06:41:47;;;;;;;25.52;8.25;;;7.00;83.30;;;;;;5056957;28;20496;-66
2021/10/29 06:47:21;;;;;;;67.47;10.05;;;7.00;83.30;;;;;;5057141;28;20129;-66
2021/10/29 07:00:40;;;;;;;17.80;6.40;;;6.90;83.80;;;;;;5057326;28;20429;-66
2021/10/29 07:41:09;;;;;;;12.50;6.18;;;7.00;83.80;;;;;;5055950;28;20067;-66
2021/10/29 07:43:46;;;;;;;10.18;6.07;;;6.90;83.80;;;;;;5057709;28;20553;-66
2021/10/29 07:46:12;;;;;;;16.15;6.40;;;6.90;84.00;;;;;;5057930;28;20048;-66
2021/10/29 07:48:37;;;;;;;16.38;5.75;;;7.00;83.90;;;;;;5057169;28;20039;-66
2021/10/29 07:51:05;;;;;;;10.18;6.28;;;6.90;84.00;;;;;;5057214;28;20041;-67
2021/10/29 07:53:31;;;;;;;11.85;5.55;;;6.90;84.00;;;;;;5055389;28;20511;-67
2021/10/29 07:56:01;;;;;;;7.07;5.90;;;6.90;84.10;;;;;;5055506;28;20032;-67
2021/10/29 07:58:27;;;;;;;7.10;6.15;;;6.90;84.10;;;;;;5055688;28;20433;-67
2021/10/29 08:00:52;;;;;;;8.10;6.50;;;6.90;84.00;;;;;;5057073;28;20119;-67
2021/10/29 08:03:19;;;;;;;10.45;6.78;;;6.90;83.90;;;;;;5055091;28;20932;-67
2021/10/29 08:05:46;;;;;;;12.23;6.53;;;6.90;84.00;;;;;;5057072;28;20056;-66
2021/10/29 08:08:19;;;;;;;14.00;6.65;;;6.90;84.00;;;;;;5055568;28;20024;-67
2021/10/29 08:10:46;;;;;;;8.45;6.47;;;6.80;83.90;;;;;;5056286;28;20511;-66
2021/10/29 08:13:12;;;;;;;8.60;6.22;;;6.80;84.00;;;;;;5058719;28;20040;-66
2021/10/29 08:15:40;;;;;;;15.43;8.23;;;6.80;84.20;;;;;;5055802;28;20032;-66
2021/10/29 08:18:07;;;;;;;10.52;8.10;;;6.90;84.30;;;;;;5057043;28;20041;-66
2021/10/29 08:20:35;;;;;;;13.98;9.95;;;6.80;84.10;;;;;;5055997;28;20043;-66
2021/10/29 08:23:02;;;;;;;12.30;9.30;;;6.90;84.10;;;;;;5055937;28;20052;-67
2021/10/29 08:25:29;;;;;;;11.20;7.65;;;6.90;84.10;;;;;;5054187;28;20032;-66
2021/10/29 08:27:54;;;;;;;15.55;8.00;;;6.90;84.10;;;;;;5056172;28;20469;-67
2021/10/29 08:30:22;;;;;;;15.70;8.43;;;6.90;84.90;;;;;;5057290;28;20068;-67
2021/10/29 08:32:48;;;;;;;17.30;7.50;;;6.90;83.80;;;;;;5054554;28;20049;-66
2021/10/29 08:35:14;;;;;;;18.48;8.07;;;6.90;83.90;;;;;;5056241;28;20037;-67
2021/10/29 08:37:41;;;;;;;10.85;8.40;;;6.90;84.00;;;;;;5057535;28;20555;-67
2021/10/29 08:40:09;;;;;;;22.13;10.20;;;6.90;84.00;;;;;;5055515;28;20119;-66
2021/10/29 08:42:35;;;;;;;14.40;10.13;;;6.90;84.30;;;;;;5057946;28;20032;-66
2021/10/29 08:45:04;;;;;;;15.98;10.07;;;6.90;84.40;;;;;;5056938;28;20050;-66
2021/10/29 08:47:32;;;;;;;22.52;13.65;;;6.90;84.50;;;;;;5056373;28;20025;-67
2021/10/29 08:49:58;;;;;;;27.20;14.30;;;6.90;84.60;;;;;;5055477;28;20475;-67
2021/10/29 08:52:24;;;;;;;34.38;15.45;;;7.00;84.80;;;;;;5056003;28;20046;-66
2021/10/29 08:54:54;;;;;;;37.50;15.07;;;7.00;84.80;;;;;;5056027;28;20109;-66
2021/10/29 08:57:21;;;;;;;31.20;15.02;;;7.00;84.90;;;;;;5057585;28;20040;-67
2021/10/29 08:59:49;;;;;;;39.53;14.43;;;7.00;84.80;;;;;;5057124;28;20464;-66
2021/10/29 09:02:24;;;;;;;28.33;13.23;;;7.10;84.80;;;;;;5056718;28;20067;-67
2021/10/29 09:04:55;;;;;;;18.92;11.93;;;7.10;84.80;;;;;;5054309;28;20507;-67
2021/10/29 09:32:59;;;;;;;21.65;13.27;;;7.50;85.00;;;;;;5054856;28;20039;-67
2021/10/29 09:35:30;;;;;;;23.10;12.50;;;7.50;85.00;;;;;;5053642;28;20040;-67
2021/10/29 09:38:01;;;;;;;26.02;12.50;;;7.40;85.20;;;;;;5056300;28;20490;-67
2021/10/29 09:40:40;;;;;;;17.90;11.70;;;7.40;85.20;;;;;;5056429;28;20050;-67
2021/10/29 09:43:20;;;;;;;23.15;11.57;;;7.50;85.20;;;;;;5059659;28;20029;-66
2021/10/29 09:45:50;;;;;;;25.83;11.45;;;7.50;85.50;;;;;;5059459;28;20025;-67
2021/10/29 09:48:20;;;;;;;21.70;11.50;;;7.50;85.30;;;;;;5059379;28;20028;-67
2021/10/29 09:50:52;;;;;;;19.27;11.68;;;7.50;85.20;;;;;;5060106;28;20682;-67
2021/10/29 09:53:38;;;;;;;19.92;12.27;;;7.50;85.30;;;;;;5060832;28;20037;-66
2021/10/29 09:56:53;;;;;;;27.05;13.77;;;7.50;85.60;;;;;;5060392;28;20033;-67
2021/10/29 09:58:59;;;;;;;20.80;13.00;;;7.50;85.60;;;;;;5056938;28;20029;-67
2021/10/29 10:01:25;;;;;;;21.95;12.55;;;7.50;85.60;;;;;;5059591;28;20037;-65
2021/10/29 10:03:52;;;;;;;20.23;13.00;;;7.50;85.50;;;;;;5058904;28;20068;-67
2021/10/29 10:06:22;;;;;;;19.35;13.43;;;7.60;85.80;;;;;;5060498;28;20532;-67
2021/10/29 10:08:51;;;;;;;17.17;12.95;;;7.50;85.80;;;;;;5059900;28;20048;-65
2021/10/29 10:11:18;;;;;;;19.35;13.43;;;7.60;86.00;;;;;;5058105;28;20033;-66
2021/10/29 10:13:45;;;;;;;23.55;13.48;;;7.60;86.20;;;;;;5060002;28;20045;-66
2021/10/29 10:16:13;;;;;;;24.08;13.93;;;7.60;86.20;;;;;;5060497;28;20047;-66
2021/10/29 10:18:40;;;;;;;23.02;14.30;;;7.70;86.40;;;;;;5059025;28;20228;-66
2021/10/29 10:21:10;;;;;;;21.35;14.98;;;7.70;86.20;;;;;;5060312;28;20031;-66
2021/10/29 10:23:39;;;;;;;21.83;14.77;;;7.70;86.00;;;;;;5060084;28;20103;-66
2021/10/29 10:45:54;;;;;;;24.80;16.02;;;8.20;86.10;;;;;;5058449;28;20040;-67
2021/10/29 10:48:24;;;;;;;;;;;8.30;86.00;;;;;;5056630;28;20063;-66
2021/10/29 10:50:53;;;;;;;25.42;16.73;;;8.40;86.50;;;;;;5058980;28;20387;-67
2021/10/29 10:53:33;;;;;;;32.35;19.88;;;8.50;85.90;;;;;;5059001;28;20048;-67
2021/10/29 10:58:49;;;;;;;32.70;20.75;;;8.60;85.90;;;;;;5058635;28;20178;-66
2021/10/29 11:04:35;;;;;;;28.17;18.33;;;8.70;85.50;;;;;;5050154;28;20040;-66
2021/10/29 11:10:09;;;;;;;25.63;18.00;;;8.90;85.70;;;;;;5060012;28;20191;-67
2021/10/29 11:13:01;;;;;;;23.65;15.88;;;9.00;85.60;;;;;;5058063;28;20086;-67
2021/10/29 11:15:28;;;;;;;26.48;17.90;;;9.10;85.40;;;;;;5049833;28;20119;-67
2021/10/29 11:17:59;;;;;;;22.67;16.63;;;9.20;85.10;;;;;;5056927;28;20033;-68
2021/10/29 11:20:38;;;;;;;22.33;15.60;;;9.20;85.10;;;;;;5057792;28;20043;-66
2021/10/29 11:23:06;;;;;;;23.33;16.70;;;9.30;85.20;;;;;;5057536;28;20044;-65
2021/10/29 11:26:01;;;;;;;23.35;15.57;;;9.30;85.00;;;;;;5057587;28;20516;-68
2021/10/29 11:28:31;;;;;;;21.20;16.05;;;9.40;85.00;;;;;;5057148;28;20051;-68
2021/10/29 11:30:57;;;;;;;22.40;16.33;;;9.50;84.80;;;;;;5062134;28;20056;-67
2021/10/29 11:33:23;;;;;;;21.75;16.05;;;9.50;84.60;;;;;;5058635;28;20436;-68
2021/10/29 11:36:04;;;;;;;21.70;15.88;;;9.60;84.50;;;;;;5058214;28;20033;-67
2021/10/29 11:38:33;;;;;;;23.67;16.73;;;9.70;84.50;;;;;;5056567;28;20049;-67
2021/10/29 11:41:01;;;;;;;22.67;16.48;;;9.70;84.40;;;;;;5055968;28;20028;-67
2021/10/29 11:43:30;;;;;;;23.30;16.23;;;9.70;84.30;;;;;;5057346;28;20037;-67
2021/10/29 11:45:59;;;;;;;22.42;16.25;;;9.80;84.20;;;;;;5055998;28;20055;-67
2021/10/29 11:48:25;;;;;;;24.60;16.48;;;9.80;84.10;;;;;;5055162;28;20040;-67
2021/10/29 11:51:03;;;;;;;25.02;18.08;;;9.90;84.00;;;;;;5058267;28;20404;-67
2021/10/29 11:53:29;;;;;;;27.27;18.27;;;9.90;84.10;;;;;;5054732;28;20059;-65
2021/10/29 11:56:01;;;;;;;24.33;18.17;;;9.90;84.10;;;;;;5055799;28;20365;-67
2021/10/29 11:58:41;;;;;;;24.63;18.02;;;10.00;84.30;;;;;;5054182;28;20064;-67
2021/10/29 12:01:31;;;;;;;25.85;18.08;;;10.00;84.10;;;;;;5056286;28;20197;-68
2021/10/29 12:07:32;;;;;;;25.70;19.05;;;10.10;84.00;;;;;;5013045;28;20041;-67
2021/10/29 12:09:52;;;;;;;24.48;18.13;;;10.20;83.80;;;;;;5050309;28;20037;-67
2021/10/29 12:12:21;;;;;;;28.45;20.52;;;10.20;83.70;;;;;;5062696;28;20043;-67
2021/10/29 12:14:52;;;;;;;29.58;20.48;;;10.30;84.60;;;;;;5055973;28;20048;-67
2021/10/29 12:19:49;;;;;;;27.40;19.23;;;10.40;84.30;;;;;;5057302;28;20039;-67
2021/10/29 12:24:59;;;;;;;27.60;19.73;;;10.50;83.50;;;;;;5055629;28;20032;-67
2021/10/29 12:27:34;;;;;;;25.83;19.58;;;10.50;83.20;;;;;;5057586;28;20033;-67
2021/10/29 12:30:15;;;;;;;;;;;10.50;82.80;;;;;;5055275;28;20025;-67
2021/10/29 13:03:02;;;;;;;;;;;11.10;82.60;;;;;;5057065;28;20315;-67
2021/10/29 13:05:28;;;;;;;;;;;11.20;82.70;;;;;;5056412;28;19916;-67
2021/10/29 13:07:53;;;;;;;;;;;11.20;82.60;;;;;;5056543;28;19924;-67
2021/10/29 13:10:19;;;;;;;;;;;11.30;82.60;;;;;;5056418;28;19913;-67
2021/10/29 13:15:14;;;;;;;;;;;11.30;82.40;;;;;;5058379;28;20007;-67
2021/10/29 13:17:48;;;;;;;;;;;11.40;82.30;;;;;;5060706;28;20362;-67
2021/10/29 13:52:25;;;;;;;;;;;11.80;81.70;;;;;;5061651;28;19923;-68
2021/10/29 14:32:47;;;;;;;;;;;11.80;80.90;;;;;;5058511;28;19923;-68
2021/10/29 14:38:06;;;;;;;;;;;11.80;80.80;;;;;;5058933;28;19946;-68
2021/10/29 14:43:23;;;;;;;;;;;11.70;80.70;;;;;;5058508;28;19920;-68
2021/10/29 14:48:47;;;;;;;;;;;11.70;80.80;;;;;;5060980;28;19927;-68
2021/10/29 14:52:33;;;;;;;;;;;11.60;80.60;;;;;;5059540;28;20011;-68
2021/10/29 15:27:06;;;;;;;;;;;11.70;80.60;;;;;;5057925;28;19962;-68
2021/10/29 15:48:04;;;;;;;;;;;11.60;80.10;;;;;;5059002;28;19912;-68
2021/10/29 15:50:35;;;;;;;;;;;11.60;80.10;;;;;;5056766;28;19999;-68
2021/10/29 15:53:00;;;;;;;;;;;11.60;80.10;;;;;;5058353;28;20364;-68
2021/10/29 16:03:27;;;;;;;;;;;11.50;79.90;;;;;;5052975;28;19923;-66
2021/10/29 16:19:34;;;;;;;;;;;11.30;79.40;;;;;;5056817;28;20144;-67
2021/10/29 16:22:03;;;;;;;;;;;11.30;79.30;;;;;;5057460;28;19995;-66
2021/10/29 16:24:28;;;;;;;;;;;11.30;79.30;;;;;;5056280;28;20271;-66
2021/10/29 16:26:55;;;;;;;;;;;11.20;79.30;;;;;;5056106;28;19920;-66
2021/10/29 16:29:23;;;;;;;;;;;11.20;79.30;;;;;;5057418;28;19920;-67
2021/10/29 16:31:49;;;;;;;;;;;11.10;79.30;;;;;;5057012;28;19932;-66
2021/10/29 16:34:14;;;;;;;;;;;11.10;79.40;;;;;;5056723;28;19913;-67
2021/10/29 16:36:41;;;;;;;;;;;11.10;79.50;;;;;;5056734;28;20400;-67
2021/10/29 16:39:07;;;;;;;;;;;11.00;79.40;;;;;;5057509;28;19919;-67
2021/10/29 16:41:32;;;;;;;;;;;11.00;79.60;;;;;;5057123;28;19916;-64
2021/10/29 16:43:58;;;;;;;;;;;11.00;79.70;;;;;;5053423;28;19966;-66
2021/10/29 16:46:23;;;;;;;;;;;11.00;79.80;;;;;;5057155;28;19989;-67
2021/10/29 16:48:49;;;;;;;;;;;10.90;79.80;;;;;;5058868;28;19920;-66
2021/10/29 16:51:15;;;;;;;;;;;11.00;79.90;;;;;;5057822;28;19959;-66
2021/10/29 16:53:41;;;;;;;;;;;10.90;79.90;;;;;;5057690;28;19913;-66
2021/10/29 16:56:07;;;;;;;;;;;10.90;80.00;;;;;;5059370;28;19936;-66
2021/10/29 16:58:32;;;;;;;;;;;10.90;80.00;;;;;;5058543;28;20384;-66
2021/10/29 17:00:58;;;;;;;;;;;10.90;80.10;;;;;;5056572;28;19960;-66
2021/10/29 17:03:24;;;;;;;;;;;10.90;80.10;;;;;;5056886;28;20516;-66
2021/10/29 17:05:50;;;;;;;;;;;10.90;80.20;;;;;;5056297;28;19948;-66
2021/10/29 17:08:17;;;;;;;;;;;10.90;80.30;;;;;;5058497;28;20427;-67
2021/10/29 17:10:42;;;;;;;;;;;10.90;80.20;;;;;;5055352;28;21901;-66
2021/10/29 17:13:09;;;;;;;;;;;10.80;80.20;;;;;;5057462;28;19963;-67
2021/10/29 17:15:36;;;;;;;;;;;10.80;80.20;;;;;;5056098;28;19944;-66
2021/10/29 17:18:03;;;;;;;;;;;10.80;80.30;;;;;;5056128;28;20241;-67
2021/10/29 17:20:28;;;;;;;;;;;10.80;80.50;;;;;;5057298;28;20349;-67
2021/10/29 17:22:54;;;;;;;;;;;10.70;80.50;;;;;;5057414;28;19916;-67
2021/10/29 17:25:20;;;;;;;;;;;10.80;80.60;;;;;;5055274;28;20008;-66
2021/10/29 17:27:45;;;;;;;;;;;10.70;80.50;;;;;;5055842;28;19959;-67
2021/10/29 17:30:13;;;;;;;;;;;10.70;80.50;;;;;;5057143;28;19916;-67
2021/10/29 17:32:39;;;;;;;;;;;10.70;80.50;;;;;;5055297;28;19917;-66
2021/10/29 17:35:05;;;;;;;;;;;10.70;80.50;;;;;;5056150;28;20276;-67
2021/10/29 17:37:32;;;;;;;;;;;10.70;80.50;;;;;;5058470;28;20372;-67
2021/10/29 17:40:03;;;;;;;;;;;10.60;80.50;;;;;;5056449;28;19917;-67
2021/10/29 17:42:29;;;;;;;;;;;10.60;80.50;;;;;;5056834;28;19938;-66
2021/10/29 17:44:55;;;;;;;;;;;10.60;80.60;;;;;;5054927;28;19920;-68
2021/10/29 17:47:23;;;;;;;;;;;10.60;80.80;;;;;;5056609;28;20299;-67
2021/10/29 17:49:49;;;;;;;;;;;10.60;80.80;;;;;;5052597;28;19920;-67
2021/10/29 17:52:14;;;;;;;;;;;10.60;80.80;;;;;;5056879;28;19917;-68
2021/10/29 17:54:41;;;;;;;;;;;10.50;80.70;;;;;;5057204;28;19963;-67
2021/10/29 17:57:08;;;;;;;;;;;10.60;80.80;;;;;;5056351;28;19920;-67
2021/10/29 17:59:35;;;;;;;;;;;10.50;80.80;;;;;;5055850;28;19970;-68
2021/10/29 18:02:02;;;;;;;;;;;10.50;80.80;;;;;;5056505;28;19916;-68
2021/10/29 18:04:28;;;;;;;;;;;10.50;80.70;;;;;;5059947;28;19916;-67
2021/10/29 18:06:53;;;;;;;;;;;10.50;80.70;;;;;;5060384;28;19954;-68
2021/10/29 18:09:19;;;;;;;;;;;10.40;80.60;;;;;;5059512;28;20434;-68
2021/10/29 18:11:44;;;;;;;;;;;10.40;80.60;;;;;;5061300;28;20611;-67
2021/10/29 18:14:11;;;;;;;;;;;10.40;80.80;;;;;;5058803;28;20304;-67
2021/10/29 18:16:37;;;;;;;;;;;10.30;80.70;;;;;;5058837;28;19916;-67